sensor_id;sensor_type;location;lat;lon;timestamp;P1;durP1;ratioP1;P2;durP2;ratioP2
46767;SDS011;69007;48.978;18.066;2023-04-24T00:00:18;5.05;;;4.13;;
46767;SDS011;69007;48.978;18.066;2023-04-24T00:02:44;6.45;;;3.45;;
46767;SDS011;69007;48.978;18.066;2023-04-24T00:05:12;4.93;;;3.80;;
46767;SDS011;69007;48.978;18.066;2023-04-24T00:07:38;4.78;;;4.35;;
46767;SDS011;69007;48.978;18.066;2023-04-24T00:10:04;8.32;;;3.83;;
46767;SDS011;69007;48.978;18.066;2023-04-24T00:12:30;4.80;;;3.90;;
46767;SDS011;69007;48.978;18.066;2023-04-24T00:14:55;7.85;;;4.15;;
46767;SDS011;69007;48.978;18.066;2023-04-24T00:17:21;5.20;;;3.95;;
46767;SDS011;69007;48.978;18.066;2023-04-24T00:19:47;4.80;;;4.18;;
46767;SDS011;69007;48.978;18.066;2023-04-24T00:22:13;7.97;;;3.90;;
46767;SDS011;69007;48.978;18.066;2023-04-24T00:24:39;4.63;;;3.58;;
46767;SDS011;69007;48.978;18.066;2023-04-24T00:27:05;6.13;;;3.83;;
46767;SDS011;69007;48.978;18.066;2023-04-24T00:29:30;7.22;;;3.80;;
46767;SDS011;69007;48.978;18.066;2023-04-24T00:31:56;7.05;;;3.95;;
46767;SDS011;69007;48.978;18.066;2023-04-24T00:34:21;5.53;;;4.55;;
46767;SDS011;69007;48.978;18.066;2023-04-24T00:36:47;5.43;;;4.22;;
46767;SDS011;69007;48.978;18.066;2023-04-24T00:39:15;10.73;;;4.50;;
46767;SDS011;69007;48.978;18.066;2023-04-24T00:41:40;4.40;;;3.80;;
46767;SDS011;69007;48.978;18.066;2023-04-24T00:44:06;12.20;;;3.92;;
46767;SDS011;69007;48.978;18.066;2023-04-24T00:46:32;5.55;;;4.30;;
46767;SDS011;69007;48.978;18.066;2023-04-24T00:48:57;5.47;;;3.80;;
46767;SDS011;69007;48.978;18.066;2023-04-24T00:51:24;6.35;;;4.18;;
46767;SDS011;69007;48.978;18.066;2023-04-24T00:53:49;5.30;;;3.85;;
46767;SDS011;69007;48.978;18.066;2023-04-24T00:56:16;6.13;;;3.97;;
46767;SDS011;69007;48.978;18.066;2023-04-24T00:58:42;5.05;;;4.00;;
46767;SDS011;69007;48.978;18.066;2023-04-24T01:01:08;4.88;;;4.10;;
46767;SDS011;69007;48.978;18.066;2023-04-24T01:03:34;5.95;;;4.13;;
46767;SDS011;69007;48.978;18.066;2023-04-24T01:06:02;7.90;;;3.85;;
46767;SDS011;69007;48.978;18.066;2023-04-24T01:08:28;9.60;;;4.15;;
46767;SDS011;69007;48.978;18.066;2023-04-24T01:10:54;6.70;;;3.67;;
46767;SDS011;69007;48.978;18.066;2023-04-24T01:13:21;5.70;;;4.32;;
46767;SDS011;69007;48.978;18.066;2023-04-24T01:15:47;6.18;;;4.88;;
46767;SDS011;69007;48.978;18.066;2023-04-24T01:18:13;6.03;;;3.95;;
46767;SDS011;69007;48.978;18.066;2023-04-24T01:20:40;6.88;;;3.92;;
46767;SDS011;69007;48.978;18.066;2023-04-24T01:23:09;5.95;;;3.78;;
46767;SDS011;69007;48.978;18.066;2023-04-24T01:25:35;8.55;;;4.82;;
46767;SDS011;69007;48.978;18.066;2023-04-24T01:28:01;6.70;;;4.45;;
46767;SDS011;69007;48.978;18.066;2023-04-24T01:30:27;5.00;;;4.32;;
46767;SDS011;69007;48.978;18.066;2023-04-24T01:32:53;7.20;;;4.15;;
46767;SDS011;69007;48.978;18.066;2023-04-24T01:35:18;5.35;;;4.20;;
46767;SDS011;69007;48.978;18.066;2023-04-24T01:37:45;4.68;;;4.15;;
46767;SDS011;69007;48.978;18.066;2023-04-24T01:40:10;4.20;;;3.80;;
46767;SDS011;69007;48.978;18.066;2023-04-24T01:42:36;5.10;;;4.35;;
46767;SDS011;69007;48.978;18.066;2023-04-24T01:45:03;3.92;;;3.63;;
46767;SDS011;69007;48.978;18.066;2023-04-24T01:47:30;7.10;;;3.90;;
46767;SDS011;69007;48.978;18.066;2023-04-24T01:49:56;4.75;;;4.10;;
46767;SDS011;69007;48.978;18.066;2023-04-24T01:52:22;7.13;;;4.03;;
46767;SDS011;69007;48.978;18.066;2023-04-24T01:54:47;8.27;;;4.03;;
46767;SDS011;69007;48.978;18.066;2023-04-24T01:57:13;5.25;;;4.15;;
46767;SDS011;69007;48.978;18.066;2023-04-24T01:59:39;4.53;;;3.70;;
46767;SDS011;69007;48.978;18.066;2023-04-24T02:02:05;4.57;;;4.15;;
46767;SDS011;69007;48.978;18.066;2023-04-24T02:04:30;8.77;;;4.18;;
46767;SDS011;69007;48.978;18.066;2023-04-24T02:06:55;10.38;;;4.40;;
46767;SDS011;69007;48.978;18.066;2023-04-24T02:09:22;5.75;;;3.97;;
46767;SDS011;69007;48.978;18.066;2023-04-24T02:11:47;4.80;;;3.92;;
46767;SDS011;69007;48.978;18.066;2023-04-24T02:14:13;5.50;;;4.22;;
46767;SDS011;69007;48.978;18.066;2023-04-24T02:16:38;7.22;;;4.10;;
46767;SDS011;69007;48.978;18.066;2023-04-24T02:19:03;9.52;;;4.32;;
46767;SDS011;69007;48.978;18.066;2023-04-24T02:21:29;6.93;;;3.83;;
46767;SDS011;69007;48.978;18.066;2023-04-24T02:23:55;5.82;;;3.90;;
46767;SDS011;69007;48.978;18.066;2023-04-24T02:26:21;9.15;;;4.07;;
46767;SDS011;69007;48.978;18.066;2023-04-24T02:28:46;7.95;;;4.60;;
46767;SDS011;69007;48.978;18.066;2023-04-24T02:31:12;4.82;;;4.07;;
46767;SDS011;69007;48.978;18.066;2023-04-24T02:33:37;9.00;;;4.30;;
46767;SDS011;69007;48.978;18.066;2023-04-24T02:36:02;6.63;;;4.17;;
46767;SDS011;69007;48.978;18.066;2023-04-24T02:38:28;4.75;;;4.03;;
46767;SDS011;69007;48.978;18.066;2023-04-24T02:40:54;8.82;;;4.40;;
46767;SDS011;69007;48.978;18.066;2023-04-24T02:43:19;8.73;;;4.47;;
46767;SDS011;69007;48.978;18.066;2023-04-24T02:45:45;7.05;;;4.82;;
46767;SDS011;69007;48.978;18.066;2023-04-24T02:48:10;5.75;;;4.30;;
46767;SDS011;69007;48.978;18.066;2023-04-24T02:50:35;6.28;;;4.32;;
46767;SDS011;69007;48.978;18.066;2023-04-24T02:53:01;5.93;;;4.22;;
46767;SDS011;69007;48.978;18.066;2023-04-24T02:55:26;6.75;;;4.43;;
46767;SDS011;69007;48.978;18.066;2023-04-24T02:57:51;10.27;;;4.47;;
46767;SDS011;69007;48.978;18.066;2023-04-24T03:00:17;5.70;;;4.40;;
46767;SDS011;69007;48.978;18.066;2023-04-24T03:02:42;4.40;;;4.00;;
46767;SDS011;69007;48.978;18.066;2023-04-24T03:05:07;6.47;;;4.88;;
46767;SDS011;69007;48.978;18.066;2023-04-24T03:07:34;6.00;;;4.40;;
46767;SDS011;69007;48.978;18.066;2023-04-24T03:09:59;7.63;;;4.03;;
46767;SDS011;69007;48.978;18.066;2023-04-24T03:12:25;8.50;;;5.13;;
46767;SDS011;69007;48.978;18.066;2023-04-24T03:14:50;11.35;;;4.53;;
46767;SDS011;69007;48.978;18.066;2023-04-24T03:17:15;7.38;;;4.63;;
46767;SDS011;69007;48.978;18.066;2023-04-24T03:19:41;8.20;;;4.38;;
46767;SDS011;69007;48.978;18.066;2023-04-24T03:22:06;6.43;;;4.35;;
46767;SDS011;69007;48.978;18.066;2023-04-24T03:24:34;6.65;;;4.55;;
46767;SDS011;69007;48.978;18.066;2023-04-24T03:26:59;10.75;;;4.88;;
46767;SDS011;69007;48.978;18.066;2023-04-24T03:29:25;7.72;;;4.45;;
46767;SDS011;69007;48.978;18.066;2023-04-24T03:31:50;5.68;;;4.38;;
46767;SDS011;69007;48.978;18.066;2023-04-24T03:34:15;9.13;;;4.13;;
46767;SDS011;69007;48.978;18.066;2023-04-24T03:36:41;5.03;;;4.32;;
46767;SDS011;69007;48.978;18.066;2023-04-24T03:39:06;4.97;;;4.45;;
46767;SDS011;69007;48.978;18.066;2023-04-24T03:41:32;8.18;;;4.78;;
46767;SDS011;69007;48.978;18.066;2023-04-24T03:43:57;6.80;;;4.38;;
46767;SDS011;69007;48.978;18.066;2023-04-24T03:46:23;6.78;;;4.30;;
46767;SDS011;69007;48.978;18.066;2023-04-24T03:48:48;6.00;;;4.70;;
46767;SDS011;69007;48.978;18.066;2023-04-24T03:51:13;7.05;;;5.00;;
46767;SDS011;69007;48.978;18.066;2023-04-24T03:53:39;11.45;;;4.70;;
46767;SDS011;69007;48.978;18.066;2023-04-24T03:56:04;5.03;;;4.38;;
46767;SDS011;69007;48.978;18.066;2023-04-24T03:58:30;6.63;;;4.68;;
46767;SDS011;69007;48.978;18.066;2023-04-24T04:00:55;4.55;;;4.05;;
46767;SDS011;69007;48.978;18.066;2023-04-24T04:03:22;5.05;;;4.25;;
46767;SDS011;69007;48.978;18.066;2023-04-24T04:05:48;5.43;;;4.43;;
46767;SDS011;69007;48.978;18.066;2023-04-24T04:08:13;7.97;;;5.28;;
46767;SDS011;69007;48.978;18.066;2023-04-24T04:10:38;5.22;;;4.57;;
46767;SDS011;69007;48.978;18.066;2023-04-24T04:13:04;12.25;;;5.00;;
46767;SDS011;69007;48.978;18.066;2023-04-24T04:15:31;7.78;;;4.65;;
46767;SDS011;69007;48.978;18.066;2023-04-24T04:17:56;5.25;;;4.75;;
46767;SDS011;69007;48.978;18.066;2023-04-24T04:20:21;8.55;;;5.13;;
46767;SDS011;69007;48.978;18.066;2023-04-24T04:22:47;5.63;;;4.90;;
46767;SDS011;69007;48.978;18.066;2023-04-24T04:25:12;7.35;;;4.55;;
46767;SDS011;69007;48.978;18.066;2023-04-24T04:27:38;5.40;;;4.47;;
46767;SDS011;69007;48.978;18.066;2023-04-24T04:30:04;5.78;;;4.57;;
46767;SDS011;69007;48.978;18.066;2023-04-24T04:32:33;7.80;;;4.47;;
46767;SDS011;69007;48.978;18.066;2023-04-24T04:35:03;8.38;;;4.80;;
46767;SDS011;69007;48.978;18.066;2023-04-24T04:37:29;6.10;;;4.35;;
46767;SDS011;69007;48.978;18.066;2023-04-24T04:39:56;7.70;;;4.70;;
46767;SDS011;69007;48.978;18.066;2023-04-24T04:42:22;19.77;;;5.10;;
46767;SDS011;69007;48.978;18.066;2023-04-24T04:44:48;7.20;;;4.32;;
46767;SDS011;69007;48.978;18.066;2023-04-24T04:47:15;8.63;;;4.18;;
46767;SDS011;69007;48.978;18.066;2023-04-24T04:49:41;9.05;;;4.90;;
46767;SDS011;69007;48.978;18.066;2023-04-24T04:52:06;4.50;;;4.10;;
46767;SDS011;69007;48.978;18.066;2023-04-24T04:54:32;7.10;;;4.25;;
46767;SDS011;69007;48.978;18.066;2023-04-24T04:56:57;5.53;;;4.25;;
46767;SDS011;69007;48.978;18.066;2023-04-24T04:59:22;4.88;;;4.10;;
46767;SDS011;69007;48.978;18.066;2023-04-24T05:01:48;5.30;;;4.75;;
46767;SDS011;69007;48.978;18.066;2023-04-24T05:04:13;5.25;;;4.32;;
46767;SDS011;69007;48.978;18.066;2023-04-24T05:06:39;13.32;;;5.80;;
46767;SDS011;69007;48.978;18.066;2023-04-24T05:09:04;6.40;;;5.22;;
46767;SDS011;69007;48.978;18.066;2023-04-24T05:11:29;8.88;;;6.03;;
46767;SDS011;69007;48.978;18.066;2023-04-24T05:13:55;12.68;;;4.90;;
46767;SDS011;69007;48.978;18.066;2023-04-24T05:16:20;7.57;;;4.85;;
46767;SDS011;69007;48.978;18.066;2023-04-24T05:18:46;5.97;;;4.80;;
46767;SDS011;69007;48.978;18.066;2023-04-24T05:21:11;7.78;;;4.95;;
46767;SDS011;69007;48.978;18.066;2023-04-24T05:23:37;8.68;;;5.22;;
46767;SDS011;69007;48.978;18.066;2023-04-24T05:26:02;7.50;;;4.97;;
46767;SDS011;69007;48.978;18.066;2023-04-24T05:28:28;6.45;;;4.57;;
46767;SDS011;69007;48.978;18.066;2023-04-24T05:30:53;7.80;;;4.75;;
46767;SDS011;69007;48.978;18.066;2023-04-24T05:33:20;8.82;;;4.60;;
46767;SDS011;69007;48.978;18.066;2023-04-24T05:35:47;6.47;;;4.43;;
46767;SDS011;69007;48.978;18.066;2023-04-24T05:38:12;5.15;;;4.65;;
46767;SDS011;69007;48.978;18.066;2023-04-24T05:40:38;8.43;;;4.55;;
46767;SDS011;69007;48.978;18.066;2023-04-24T05:43:04;12.38;;;4.72;;
46767;SDS011;69007;48.978;18.066;2023-04-24T05:45:29;8.60;;;5.15;;
46767;SDS011;69007;48.978;18.066;2023-04-24T05:47:54;7.68;;;4.45;;
46767;SDS011;69007;48.978;18.066;2023-04-24T05:50:20;5.25;;;4.75;;
46767;SDS011;69007;48.978;18.066;2023-04-24T05:52:45;12.57;;;4.30;;
46767;SDS011;69007;48.978;18.066;2023-04-24T05:55:11;11.23;;;4.15;;
46767;SDS011;69007;48.978;18.066;2023-04-24T05:57:36;5.15;;;3.90;;
46767;SDS011;69007;48.978;18.066;2023-04-24T06:00:02;4.97;;;3.65;;
46767;SDS011;69007;48.978;18.066;2023-04-24T06:02:29;5.32;;;3.63;;
46767;SDS011;69007;48.978;18.066;2023-04-24T06:04:57;7.65;;;4.45;;
46767;SDS011;69007;48.978;18.066;2023-04-24T06:07:24;7.13;;;3.50;;
46767;SDS011;69007;48.978;18.066;2023-04-24T06:09:51;7.43;;;3.92;;
46767;SDS011;69007;48.978;18.066;2023-04-24T06:12:17;6.93;;;6.20;;
46767;SDS011;69007;48.978;18.066;2023-04-24T06:14:42;8.35;;;4.30;;
46767;SDS011;69007;48.978;18.066;2023-04-24T06:17:07;4.43;;;4.03;;
46767;SDS011;69007;48.978;18.066;2023-04-24T06:19:33;10.20;;;3.90;;
46767;SDS011;69007;48.978;18.066;2023-04-24T06:21:58;5.63;;;4.00;;
46767;SDS011;69007;48.978;18.066;2023-04-24T06:24:27;6.57;;;4.05;;
46767;SDS011;69007;48.978;18.066;2023-04-24T06:26:53;4.75;;;4.15;;
46767;SDS011;69007;48.978;18.066;2023-04-24T06:29:19;4.70;;;3.72;;
46767;SDS011;69007;48.978;18.066;2023-04-24T06:31:44;4.40;;;3.92;;
46767;SDS011;69007;48.978;18.066;2023-04-24T06:34:09;6.53;;;3.78;;
46767;SDS011;69007;48.978;18.066;2023-04-24T06:36:35;6.05;;;3.80;;
46767;SDS011;69007;48.978;18.066;2023-04-24T06:39:00;7.43;;;4.20;;
46767;SDS011;69007;48.978;18.066;2023-04-24T06:41:26;14.95;;;4.53;;
46767;SDS011;69007;48.978;18.066;2023-04-24T06:43:53;6.13;;;4.43;;
46767;SDS011;69007;48.978;18.066;2023-04-24T06:46:18;4.97;;;4.10;;
46767;SDS011;69007;48.978;18.066;2023-04-24T06:48:43;7.18;;;4.50;;
46767;SDS011;69007;48.978;18.066;2023-04-24T06:51:09;9.63;;;5.22;;
46767;SDS011;69007;48.978;18.066;2023-04-24T06:53:35;12.55;;;4.80;;
46767;SDS011;69007;48.978;18.066;2023-04-24T06:56:00;4.85;;;4.20;;
46767;SDS011;69007;48.978;18.066;2023-04-24T06:58:26;9.38;;;4.32;;
46767;SDS011;69007;48.978;18.066;2023-04-24T07:00:51;8.35;;;4.75;;
46767;SDS011;69007;48.978;18.066;2023-04-24T07:03:16;7.60;;;4.57;;
46767;SDS011;69007;48.978;18.066;2023-04-24T07:05:42;8.23;;;4.68;;
46767;SDS011;69007;48.978;18.066;2023-04-24T07:08:07;7.13;;;4.90;;
46767;SDS011;69007;48.978;18.066;2023-04-24T07:10:33;10.48;;;4.70;;
46767;SDS011;69007;48.978;18.066;2023-04-24T07:13:00;8.32;;;4.88;;
46767;SDS011;69007;48.978;18.066;2023-04-24T07:15:26;6.32;;;4.90;;
46767;SDS011;69007;48.978;18.066;2023-04-24T07:17:51;6.55;;;5.00;;
46767;SDS011;69007;48.978;18.066;2023-04-24T07:20:17;8.18;;;5.00;;
46767;SDS011;69007;48.978;18.066;2023-04-24T07:22:42;5.70;;;4.72;;
46767;SDS011;69007;48.978;18.066;2023-04-24T07:25:07;10.40;;;5.28;;
46767;SDS011;69007;48.978;18.066;2023-04-24T07:27:33;6.60;;;4.63;;
46767;SDS011;69007;48.978;18.066;2023-04-24T07:29:59;12.02;;;4.88;;
46767;SDS011;69007;48.978;18.066;2023-04-24T07:32:25;6.90;;;4.97;;
46767;SDS011;69007;48.978;18.066;2023-04-24T07:34:51;5.97;;;5.25;;
46767;SDS011;69007;48.978;18.066;2023-04-24T07:37:16;7.55;;;4.53;;
46767;SDS011;69007;48.978;18.066;2023-04-24T07:39:41;5.72;;;4.93;;
46767;SDS011;69007;48.978;18.066;2023-04-24T07:42:07;6.22;;;4.78;;
46767;SDS011;69007;48.978;18.066;2023-04-24T07:44:32;7.57;;;4.75;;
46767;SDS011;69007;48.978;18.066;2023-04-24T07:46:58;13.65;;;4.80;;
46767;SDS011;69007;48.978;18.066;2023-04-24T07:49:23;6.97;;;4.70;;
46767;SDS011;69007;48.978;18.066;2023-04-24T07:51:49;5.35;;;4.85;;
46767;SDS011;69007;48.978;18.066;2023-04-24T07:54:15;6.35;;;5.05;;
46767;SDS011;69007;48.978;18.066;2023-04-24T07:56:41;6.70;;;5.13;;
46767;SDS011;69007;48.978;18.066;2023-04-24T07:59:08;5.32;;;4.78;;
46767;SDS011;69007;48.978;18.066;2023-04-24T08:01:35;7.10;;;5.07;;
46767;SDS011;69007;48.978;18.066;2023-04-24T08:04:00;10.02;;;4.38;;
46767;SDS011;69007;48.978;18.066;2023-04-24T08:06:25;6.20;;;4.82;;
46767;SDS011;69007;48.978;18.066;2023-04-24T08:08:55;6.18;;;4.97;;
46767;SDS011;69007;48.978;18.066;2023-04-24T08:11:21;5.72;;;4.60;;
46767;SDS011;69007;48.978;18.066;2023-04-24T08:13:46;7.23;;;4.50;;
46767;SDS011;69007;48.978;18.066;2023-04-24T08:16:11;5.30;;;4.80;;
46767;SDS011;69007;48.978;18.066;2023-04-24T08:18:37;6.38;;;4.38;;
46767;SDS011;69007;48.978;18.066;2023-04-24T08:21:02;7.93;;;4.65;;
46767;SDS011;69007;48.978;18.066;2023-04-24T08:23:28;5.75;;;4.35;;
46767;SDS011;69007;48.978;18.066;2023-04-24T08:25:54;8.05;;;4.30;;
46767;SDS011;69007;48.978;18.066;2023-04-24T08:28:20;4.38;;;3.97;;
46767;SDS011;69007;48.978;18.066;2023-04-24T08:30:45;8.77;;;4.20;;
46767;SDS011;69007;48.978;18.066;2023-04-24T08:33:19;5.03;;;4.38;;
46767;SDS011;69007;48.978;18.066;2023-04-24T08:35:47;7.70;;;4.10;;
46767;SDS011;69007;48.978;18.066;2023-04-24T08:38:13;7.80;;;4.47;;
46767;SDS011;69007;48.978;18.066;2023-04-24T08:40:38;5.72;;;4.22;;
46767;SDS011;69007;48.978;18.066;2023-04-24T08:43:04;7.55;;;4.40;;
46767;SDS011;69007;48.978;18.066;2023-04-24T08:45:30;5.60;;;4.18;;
46767;SDS011;69007;48.978;18.066;2023-04-24T08:47:55;7.60;;;5.40;;
46767;SDS011;69007;48.978;18.066;2023-04-24T08:50:23;4.43;;;4.03;;
46767;SDS011;69007;48.978;18.066;2023-04-24T08:52:49;9.10;;;4.75;;
46767;SDS011;69007;48.978;18.066;2023-04-24T08:55:18;5.72;;;4.28;;
46767;SDS011;69007;48.978;18.066;2023-04-24T08:57:45;4.78;;;4.25;;
46767;SDS011;69007;48.978;18.066;2023-04-24T09:00:15;5.55;;;4.57;;
46767;SDS011;69007;48.978;18.066;2023-04-24T09:02:42;5.05;;;4.53;;
46767;SDS011;69007;48.978;18.066;2023-04-24T09:05:10;4.35;;;3.97;;
46767;SDS011;69007;48.978;18.066;2023-04-24T09:07:38;8.18;;;4.38;;
46767;SDS011;69007;48.978;18.066;2023-04-24T09:10:04;5.25;;;4.50;;
46767;SDS011;69007;48.978;18.066;2023-04-24T09:12:31;6.20;;;3.85;;
46767;SDS011;69007;48.978;18.066;2023-04-24T09:14:57;5.82;;;4.72;;
46767;SDS011;69007;48.978;18.066;2023-04-24T09:17:24;6.18;;;4.85;;
46767;SDS011;69007;48.978;18.066;2023-04-24T09:19:51;5.03;;;4.63;;
46767;SDS011;69007;48.978;18.066;2023-04-24T09:22:17;6.72;;;4.63;;
46767;SDS011;69007;48.978;18.066;2023-04-24T09:24:43;6.80;;;4.55;;
46767;SDS011;69007;48.978;18.066;2023-04-24T09:27:10;5.15;;;4.65;;
46767;SDS011;69007;48.978;18.066;2023-04-24T09:29:37;6.60;;;5.53;;
46767;SDS011;69007;48.978;18.066;2023-04-24T09:32:21;7.07;;;5.00;;
46767;SDS011;69007;48.978;18.066;2023-04-24T09:34:47;6.15;;;4.20;;
46767;SDS011;69007;48.978;18.066;2023-04-24T09:37:28;9.18;;;5.28;;
46767;SDS011;69007;48.978;18.066;2023-04-24T09:40:14;8.43;;;4.78;;
46767;SDS011;69007;48.978;18.066;2023-04-24T09:42:59;7.82;;;4.55;;
46767;SDS011;69007;48.978;18.066;2023-04-24T09:45:37;9.40;;;5.20;;
46767;SDS011;69007;48.978;18.066;2023-04-24T09:48:04;5.47;;;4.68;;
46767;SDS011;69007;48.978;18.066;2023-04-24T09:50:31;6.60;;;5.13;;
46767;SDS011;69007;48.978;18.066;2023-04-24T09:52:58;8.25;;;5.07;;
46767;SDS011;69007;48.978;18.066;2023-04-24T09:55:27;5.68;;;4.72;;
46767;SDS011;69007;48.978;18.066;2023-04-24T10:00:30;8.82;;;5.57;;
46767;SDS011;69007;48.978;18.066;2023-04-24T10:03:01;6.38;;;5.00;;
46767;SDS011;69007;48.978;18.066;2023-04-24T10:05:32;6.78;;;5.25;;
46767;SDS011;69007;48.978;18.066;2023-04-24T10:10:31;7.10;;;4.60;;
46767;SDS011;69007;48.978;18.066;2023-04-24T10:13:00;14.80;;;5.43;;
46767;SDS011;69007;48.978;18.066;2023-04-24T10:15:26;5.72;;;5.15;;
46767;SDS011;69007;48.978;18.066;2023-04-24T10:17:52;6.65;;;5.10;;
46767;SDS011;69007;48.978;18.066;2023-04-24T10:20:18;5.85;;;5.35;;
46767;SDS011;69007;48.978;18.066;2023-04-24T10:22:47;7.80;;;5.18;;
46767;SDS011;69007;48.978;18.066;2023-04-24T10:25:15;7.93;;;5.40;;
46767;SDS011;69007;48.978;18.066;2023-04-24T10:27:42;11.07;;;5.63;;
46767;SDS011;69007;48.978;18.066;2023-04-24T10:30:08;6.70;;;5.70;;
46767;SDS011;69007;48.978;18.066;2023-04-24T10:32:36;11.20;;;5.57;;
46767;SDS011;69007;48.978;18.066;2023-04-24T10:35:01;11.30;;;5.95;;
46767;SDS011;69007;48.978;18.066;2023-04-24T10:37:27;6.72;;;5.25;;
46767;SDS011;69007;48.978;18.066;2023-04-24T10:39:53;11.65;;;6.25;;
46767;SDS011;69007;48.978;18.066;2023-04-24T10:42:21;8.70;;;5.57;;
46767;SDS011;69007;48.978;18.066;2023-04-24T10:44:47;9.65;;;5.53;;
46767;SDS011;69007;48.978;18.066;2023-04-24T10:47:14;6.82;;;5.85;;
46767;SDS011;69007;48.978;18.066;2023-04-24T10:49:39;7.38;;;5.25;;
46767;SDS011;69007;48.978;18.066;2023-04-24T10:52:05;8.30;;;5.22;;
46767;SDS011;69007;48.978;18.066;2023-04-24T10:59:42;9.15;;;5.78;;
46767;SDS011;69007;48.978;18.066;2023-04-24T11:02:08;9.27;;;5.38;;
46767;SDS011;69007;48.978;18.066;2023-04-24T11:04:34;9.45;;;5.78;;
46767;SDS011;69007;48.978;18.066;2023-04-24T11:07:03;7.07;;;5.70;;
46767;SDS011;69007;48.978;18.066;2023-04-24T11:09:31;11.18;;;5.95;;
46767;SDS011;69007;48.978;18.066;2023-04-24T11:12:04;6.50;;;5.70;;
46767;SDS011;69007;48.978;18.066;2023-04-24T11:17:30;8.05;;;6.03;;
46767;SDS011;69007;48.978;18.066;2023-04-24T11:20:05;8.57;;;6.15;;
46767;SDS011;69007;48.978;18.066;2023-04-24T11:22:35;10.90;;;5.75;;
46767;SDS011;69007;48.978;18.066;2023-04-24T11:25:03;10.80;;;5.88;;
46767;SDS011;69007;48.978;18.066;2023-04-24T11:27:38;8.52;;;5.50;;
46767;SDS011;69007;48.978;18.066;2023-04-24T11:30:05;6.03;;;5.43;;
46767;SDS011;69007;48.978;18.066;2023-04-24T11:32:35;6.55;;;5.32;;
46767;SDS011;69007;48.978;18.066;2023-04-24T11:35:06;8.23;;;5.70;;
46767;SDS011;69007;48.978;18.066;2023-04-24T11:37:36;11.18;;;6.03;;
46767;SDS011;69007;48.978;18.066;2023-04-24T11:40:02;13.40;;;6.15;;
46767;SDS011;69007;48.978;18.066;2023-04-24T11:42:33;8.07;;;5.80;;
46767;SDS011;69007;48.978;18.066;2023-04-24T11:44:59;9.25;;;6.13;;
46767;SDS011;69007;48.978;18.066;2023-04-24T11:47:30;8.88;;;6.22;;
46767;SDS011;69007;48.978;18.066;2023-04-24T11:49:58;10.93;;;6.65;;
46767;SDS011;69007;48.978;18.066;2023-04-24T11:52:24;7.63;;;6.57;;
46767;SDS011;69007;48.978;18.066;2023-04-24T11:54:49;7.50;;;5.80;;
46767;SDS011;69007;48.978;18.066;2023-04-24T11:57:15;9.05;;;6.22;;
46767;SDS011;69007;48.978;18.066;2023-04-24T11:59:41;7.95;;;6.65;;
46767;SDS011;69007;48.978;18.066;2023-04-24T12:02:06;9.20;;;6.15;;
46767;SDS011;69007;48.978;18.066;2023-04-24T12:04:39;8.57;;;5.97;;
46767;SDS011;69007;48.978;18.066;2023-04-24T12:07:05;9.02;;;5.82;;
46767;SDS011;69007;48.978;18.066;2023-04-24T12:12:12;7.93;;;6.38;;
46767;SDS011;69007;48.978;18.066;2023-04-24T12:14:47;11.38;;;6.05;;
46767;SDS011;69007;48.978;18.066;2023-04-24T12:17:14;9.18;;;6.35;;
46767;SDS011;69007;48.978;18.066;2023-04-24T12:19:44;10.30;;;5.90;;
46767;SDS011;69007;48.978;18.066;2023-04-24T12:22:11;10.40;;;6.78;;
46767;SDS011;69007;48.978;18.066;2023-04-24T12:24:54;10.40;;;5.93;;
46767;SDS011;69007;48.978;18.066;2023-04-24T12:27:21;8.77;;;6.35;;
46767;SDS011;69007;48.978;18.066;2023-04-24T12:29:56;11.05;;;5.85;;
46767;SDS011;69007;48.978;18.066;2023-04-24T12:32:23;7.57;;;6.15;;
46767;SDS011;69007;48.978;18.066;2023-04-24T12:34:50;10.38;;;6.35;;
46767;SDS011;69007;48.978;18.066;2023-04-24T12:37:16;10.05;;;5.97;;
46767;SDS011;69007;48.978;18.066;2023-04-24T12:40:25;11.00;;;7.00;;
46767;SDS011;69007;48.978;18.066;2023-04-24T12:42:32;7.05;;;6.32;;
46767;SDS011;69007;48.978;18.066;2023-04-24T12:44:58;8.95;;;5.80;;
46767;SDS011;69007;48.978;18.066;2023-04-24T12:47:26;8.80;;;6.75;;
46767;SDS011;69007;48.978;18.066;2023-04-24T12:49:52;14.02;;;6.35;;
46767;SDS011;69007;48.978;18.066;2023-04-24T12:52:20;11.55;;;6.85;;
46767;SDS011;69007;48.978;18.066;2023-04-24T12:54:47;10.70;;;7.13;;
46767;SDS011;69007;48.978;18.066;2023-04-24T12:57:12;11.85;;;7.28;;
46767;SDS011;69007;48.978;18.066;2023-04-24T12:59:38;8.77;;;7.30;;
46767;SDS011;69007;48.978;18.066;2023-04-24T13:02:04;12.55;;;7.80;;
46767;SDS011;69007;48.978;18.066;2023-04-24T13:04:30;10.63;;;7.35;;
46767;SDS011;69007;48.978;18.066;2023-04-24T13:06:55;8.85;;;6.47;;
46767;SDS011;69007;48.978;18.066;2023-04-24T13:09:21;13.57;;;7.18;;
46767;SDS011;69007;48.978;18.066;2023-04-24T13:11:46;11.13;;;6.95;;
46767;SDS011;69007;48.978;18.066;2023-04-24T13:14:11;8.75;;;6.88;;
46767;SDS011;69007;48.978;18.066;2023-04-24T13:16:37;8.65;;;7.32;;
46767;SDS011;69007;48.978;18.066;2023-04-24T13:19:02;8.98;;;6.45;;
46767;SDS011;69007;48.978;18.066;2023-04-24T13:21:28;11.48;;;6.70;;
46767;SDS011;69007;48.978;18.066;2023-04-24T13:23:55;12.27;;;6.60;;
46767;SDS011;69007;48.978;18.066;2023-04-24T13:26:21;9.05;;;7.00;;
46767;SDS011;69007;48.978;18.066;2023-04-24T13:28:46;9.35;;;6.40;;
46767;SDS011;69007;48.978;18.066;2023-04-24T13:31:11;11.93;;;6.53;;
46767;SDS011;69007;48.978;18.066;2023-04-24T13:33:37;8.23;;;6.25;;
46767;SDS011;69007;48.978;18.066;2023-04-24T13:36:02;11.93;;;6.70;;
46767;SDS011;69007;48.978;18.066;2023-04-24T13:38:28;9.23;;;6.88;;
46767;SDS011;69007;48.978;18.066;2023-04-24T13:40:53;10.60;;;7.20;;
46767;SDS011;69007;48.978;18.066;2023-04-24T13:43:19;9.52;;;7.47;;
46767;SDS011;69007;48.978;18.066;2023-04-24T13:45:44;9.27;;;6.50;;
46767;SDS011;69007;48.978;18.066;2023-04-24T13:48:09;8.05;;;7.00;;
46767;SDS011;69007;48.978;18.066;2023-04-24T13:50:35;10.30;;;6.65;;
46767;SDS011;69007;48.978;18.066;2023-04-24T13:53:01;8.18;;;6.45;;
46767;SDS011;69007;48.978;18.066;2023-04-24T13:55:27;10.43;;;7.10;;
46767;SDS011;69007;48.978;18.066;2023-04-24T13:57:52;12.35;;;7.45;;
46767;SDS011;69007;48.978;18.066;2023-04-24T14:00:20;8.55;;;7.65;;
46767;SDS011;69007;48.978;18.066;2023-04-24T14:02:46;8.57;;;6.97;;
46767;SDS011;69007;48.978;18.066;2023-04-24T14:05:12;13.73;;;9.15;;
46767;SDS011;69007;48.978;18.066;2023-04-24T14:07:40;18.33;;;8.40;;
46767;SDS011;69007;48.978;18.066;2023-04-24T14:10:06;15.05;;;8.65;;
46767;SDS011;69007;48.978;18.066;2023-04-24T14:12:32;10.68;;;8.52;;
46767;SDS011;69007;48.978;18.066;2023-04-24T14:14:57;15.65;;;9.30;;
46767;SDS011;69007;48.978;18.066;2023-04-24T14:17:22;13.50;;;10.05;;
46767;SDS011;69007;48.978;18.066;2023-04-24T14:19:48;14.18;;;10.65;;
46767;SDS011;69007;48.978;18.066;2023-04-24T14:22:13;16.48;;;10.82;;
46767;SDS011;69007;48.978;18.066;2023-04-24T14:24:38;15.40;;;11.90;;
46767;SDS011;69007;48.978;18.066;2023-04-24T14:27:04;21.35;;;12.65;;
46767;SDS011;69007;48.978;18.066;2023-04-24T14:29:29;17.65;;;12.27;;
46767;SDS011;69007;48.978;18.066;2023-04-24T14:31:55;12.68;;;11.38;;
46767;SDS011;69007;48.978;18.066;2023-04-24T14:34:20;13.13;;;11.73;;
46767;SDS011;69007;48.978;18.066;2023-04-24T14:36:45;15.38;;;11.05;;
46767;SDS011;69007;48.978;18.066;2023-04-24T14:39:11;16.65;;;13.10;;
46767;SDS011;69007;48.978;18.066;2023-04-24T14:41:36;23.17;;;13.75;;